Time;durP1;ratioP1;P1;durP2;ratioP2;P2;SDS_P1;SDS_P2;PMS_P1;PMS_P2;Temp;Humidity;BMP_temperature;BMP_pressure;BME280_temperature;BME280_humidity;BME280_pressure;Samples;Min_cycle;Max_cycle;Signal;HPM_P1;HPM_P2
2022/09/19 00:00:41;;;;;;;21.58;1.90;;;10.70;99.90;;;;;;5012606;28;20064;-76
2022/09/19 00:03:08;;;;;;;20.52;0.90;;;10.70;99.90;;;;;;5011832;28;20401;-76
2022/09/19 00:05:37;;;;;;;21.50;1.05;;;10.70;99.90;;;;;;5010281;28;20132;-76
2022/09/19 00:08:03;;;;;;;31.02;1.45;;;10.70;99.90;;;;;;5010881;28;20046;-74
2022/09/19 00:10:29;;;;;;;32.35;2.35;;;10.80;99.90;;;;;;5011741;28;20469;-76
2022/09/19 00:12:55;;;;;;;25.00;1.33;;;10.80;99.90;;;;;;5011043;28;20107;-76
2022/09/19 00:15:22;;;;;;;26.88;1.45;;;10.80;99.90;;;;;;4994584;28;20437;-78
2022/09/19 00:17:49;;;;;;;20.27;1.25;;;10.80;99.90;;;;;;5011425;28;20370;-74
2022/09/19 00:20:16;;;;;;;21.60;1.05;;;10.80;99.90;;;;;;5011450;28;20046;-76
2022/09/19 00:24:45;;;;;;;16.83;1.25;;;10.80;99.90;;;;;;5011605;28;20077;-73
2022/09/19 00:25:28;;;;;;;23.60;1.73;;;10.80;99.90;;;;;;5011724;28;20088;-73
2022/09/19 00:27:54;;;;;;;22.33;1.57;;;10.80;99.90;;;;;;5011592;28;20085;-75
2022/09/19 00:30:20;;;;;;;15.65;0.90;;;10.80;99.90;;;;;;5011757;28;20133;-74
2022/09/19 00:32:46;;;;;;;12.70;0.80;;;10.70;99.90;;;;;;5011135;28;20084;-73
2022/09/19 00:35:13;;;;;;;12.82;0.80;;;10.70;99.90;;;;;;5009454;28;20064;-81
2022/09/19 00:37:39;;;;;;;14.40;0.90;;;10.70;99.90;;;;;;5010337;28;20141;-76
2022/09/19 00:40:05;;;;;;;11.70;0.82;;;10.60;99.90;;;;;;5011713;28;20124;-74
2022/09/19 00:42:33;;;;;;;21.23;1.48;;;10.60;99.90;;;;;;5010422;28;20056;-80
2022/09/19 00:45:12;;;;;;;12.18;0.50;;;10.60;99.90;;;;;;4994712;28;20082;-75
2022/09/19 00:47:44;;;;;;;15.20;1.20;;;10.60;99.90;;;;;;5000636;28;20046;-77
2022/09/19 00:50:24;;;;;;;15.85;1.13;;;10.60;99.90;;;;;;5010310;28;20058;-72
2022/09/19 00:53:03;;;;;;;16.90;0.82;;;10.60;99.90;;;;;;5010339;28;20053;-80
2022/09/19 00:55:28;;;;;;;13.00;0.73;;;10.60;99.90;;;;;;5009486;28;20049;-75
2022/09/19 00:58:20;;;;;;;14.98;0.88;;;10.60;99.90;;;;;;5011476;28;20046;-73
2022/09/19 01:00:46;;;;;;;9.10;1.02;;;10.70;99.90;;;;;;5008051;28;20038;-75
2022/09/19 01:03:12;;;;;;;16.10;1.00;;;10.70;99.90;;;;;;5005278;28;20487;-74
2022/09/19 01:05:49;;;;;;;19.08;1.77;;;10.80;99.90;;;;;;5005627;28;20772;-75
2022/09/19 01:08:36;;;;;;;20.83;1.43;;;10.80;99.90;;;;;;5011783;28;20046;-81
2022/09/19 01:11:11;;;;;;;21.27;0.85;;;10.80;99.90;;;;;;5008651;28;20336;-74
2022/09/19 01:14:06;;;;;;;27.33;1.85;;;10.80;99.90;;;;;;5011316;28;20042;-74
2022/09/19 01:16:50;;;;;;;23.90;1.48;;;10.80;99.90;;;;;;4984100;28;20058;-76
2022/09/19 01:19:19;;;;;;;26.77;1.50;;;10.80;99.90;;;;;;4991063;28;20085;-83
2022/09/19 01:22:05;;;;;;;22.02;1.40;;;10.80;99.90;;;;;;4998693;28;20120;-75
2022/09/19 01:24:37;;;;;;;20.50;1.38;;;10.70;99.90;;;;;;5009836;28;20085;-75
2022/09/19 01:27:23;;;;;;;29.75;1.40;;;10.70;99.90;;;;;;5011904;28;20057;-75
2022/09/19 01:29:58;;;;;;;34.50;1.98;;;10.70;99.90;;;;;;5010048;28;20442;-74
2022/09/19 01:32:30;;;;;;;33.75;2.00;;;10.70;99.90;;;;;;5009116;28;20129;-74
2022/09/19 01:35:02;;;;;;;27.23;2.63;;;10.70;99.90;;;;;;5009932;28;20045;-73
2022/09/19 01:37:42;;;;;;;21.35;1.23;;;10.80;99.90;;;;;;5025588;28;20038;-76
2022/09/19 01:40:10;;;;;;;25.60;1.52;;;10.80;99.90;;;;;;5010814;28;20455;-76
2022/09/19 01:42:48;;;;;;;28.15;2.20;;;10.70;99.90;;;;;;5010007;28;20058;-74
2022/09/19 01:45:14;;;;;;;25.65;1.63;;;10.70;99.90;;;;;;5011701;28;20065;-79
2022/09/19 01:47:59;;;;;;;20.40;1.27;;;10.70;99.90;;;;;;5010758;28;20091;-78
2022/09/19 01:50:48;;;;;;;22.13;1.65;;;10.70;99.90;;;;;;5010826;28;20096;-76
2022/09/19 01:53:20;;;;;;;37.70;1.63;;;10.70;99.90;;;;;;5011042;28;20068;-73
2022/09/19 01:56:01;;;;;;;31.70;1.30;;;10.70;99.90;;;;;;5011793;28;20046;-75
2022/09/19 01:58:29;;;;;;;26.05;1.88;;;10.80;99.90;;;;;;5011586;28;20486;-73
2022/09/19 02:01:16;;;;;;;25.90;1.95;;;10.80;99.90;;;;;;5010782;28;20046;-74
2022/09/19 02:03:43;;;;;;;22.35;1.30;;;10.70;99.90;;;;;;5010940;28;20052;-74
2022/09/19 02:06:19;;;;;;;21.17;1.20;;;10.70;99.90;;;;;;5010686;28;20520;-73
2022/09/19 02:08:47;;;;;;;20.40;1.08;;;10.60;99.90;;;;;;5011075;28;20049;-74
2022/09/19 02:11:17;;;;;;;28.45;2.22;;;10.70;99.90;;;;;;5011527;28;20056;-75
2022/09/19 02:13:48;;;;;;;39.03;1.90;;;10.70;99.90;;;;;;5012432;28;20064;-76
2022/09/19 02:16:39;;;;;;;26.65;1.65;;;10.60;99.90;;;;;;5015125;28;20038;-75
2022/09/19 02:19:13;;;;;;;22.33;1.48;;;10.60;99.90;;;;;;5016175;28;20046;-75
2022/09/19 02:21:51;;;;;;;28.58;1.38;;;10.50;99.90;;;;;;5026980;28;20058;-77
2022/09/19 02:24:26;;;;;;;27.30;1.23;;;10.50;99.90;;;;;;5015071;28;20101;-76
2022/09/19 02:26:55;;;;;;;45.45;2.40;;;10.50;99.90;;;;;;5032314;28;20046;-75
2022/09/19 02:29:29;;;;;;;25.52;1.30;;;10.40;99.90;;;;;;5021132;28;20054;-81
2022/09/19 02:31:56;;;;;;;24.33;1.30;;;10.30;99.90;;;;;;5016797;28;20096;-75
2022/09/19 02:34:22;;;;;;;29.42;2.35;;;10.30;99.90;;;;;;5013086;28;20060;-85
2022/09/19 02:37:29;;;;;;;20.63;1.45;;;10.30;99.90;;;;;;5011295;28;20208;-74
2022/09/19 02:40:04;;;;;;;24.58;1.70;;;10.20;99.90;;;;;;5013775;28;20058;-76
2022/09/19 02:42:52;;;;;;;27.80;1.30;;;10.20;99.90;;;;;;5013687;28;20399;-76
2022/09/19 02:45:31;;;;;;;26.48;2.30;;;10.20;99.90;;;;;;5012912;28;20068;-75
2022/09/19 02:47:57;;;;;;;28.15;1.77;;;10.20;99.90;;;;;;5010816;28;20569;-74
2022/09/19 02:50:25;;;;;;;20.50;1.40;;;10.30;99.90;;;;;;5013169;28;20058;-78
2022/09/19 02:52:53;;;;;;;31.08;2.03;;;10.30;99.90;;;;;;5013747;28;20076;-76
2022/09/19 02:55:27;;;;;;;28.48;2.33;;;10.30;99.90;;;;;;5009676;28;20043;-74
2022/09/19 02:57:57;;;;;;;32.85;1.90;;;10.40;99.90;;;;;;4996728;28;20042;-75
2022/09/19 03:00:25;;;;;;;26.38;1.73;;;10.30;99.90;;;;;;5012847;28;20097;-74
2022/09/19 03:03:00;;;;;;;29.13;1.85;;;10.40;99.90;;;;;;5010517;28;20285;-74
2022/09/19 03:05:28;;;;;;;29.70;1.92;;;10.40;99.90;;;;;;5012682;28;20169;-80
2022/09/19 03:08:24;;;;;;;35.05;1.63;;;10.30;99.90;;;;;;4995672;28;20046;-78
2022/09/19 03:10:54;;;;;;;32.47;1.80;;;10.30;99.90;;;;;;4998409;28;20136;-74
2022/09/19 03:13:24;;;;;;;26.50;1.88;;;10.20;99.90;;;;;;5011717;28;20180;-75
2022/09/19 03:16:15;;;;;;;35.28;2.58;;;10.30;99.90;;;;;;5011777;28;20050;-74
2022/09/19 03:18:46;;;;;;;24.80;1.58;;;10.30;99.90;;;;;;5011120;28;20046;-73
2022/09/19 03:21:12;;;;;;;22.23;1.88;;;10.30;99.90;;;;;;4991558;28;20052;-75
2022/09/19 03:23:44;;;;;;;31.42;1.88;;;10.30;99.90;;;;;;4991702;28;20072;-73
2022/09/19 03:26:18;;;;;;;30.05;1.75;;;10.30;99.90;;;;;;4991973;28;20050;-74
2022/09/19 03:28:44;;;;;;;33.08;1.90;;;10.30;99.90;;;;;;4992629;28;20053;-77
2022/09/19 03:31:10;;;;;;;29.77;1.52;;;10.30;99.90;;;;;;5008734;28;20046;-76
2022/09/19 03:33:35;;;;;;;24.27;1.73;;;10.20;99.90;;;;;;5005042;28;20046;-74
2022/09/19 03:36:07;;;;;;;22.90;2.10;;;10.30;99.90;;;;;;5010853;28;20157;-74
2022/09/19 03:38:35;;;;;;;30.90;1.70;;;10.20;99.90;;;;;;5012219;28;20049;-74
2022/09/19 03:41:01;;;;;;;31.52;1.48;;;10.20;99.90;;;;;;5012582;28;20045;-73
2022/09/19 03:43:29;;;;;;;27.58;1.50;;;10.20;99.90;;;;;;5011502;28;20169;-74
2022/09/19 03:45:56;;;;;;;21.67;1.63;;;10.20;99.90;;;;;;5010156;28;20050;-74
2022/09/19 03:48:23;;;;;;;19.92;2.58;;;10.10;99.90;;;;;;4994466;28;20054;-74
2022/09/19 03:50:48;;;;;;;18.07;1.40;;;10.10;99.90;;;;;;5009855;28;20104;-74
2022/09/19 03:53:15;;;;;;;30.77;1.90;;;10.00;99.90;;;;;;5011021;28;20442;-75
2022/09/19 03:55:41;;;;;;;26.75;1.88;;;10.00;99.90;;;;;;5009014;28;20458;-74
2022/09/19 03:58:10;;;;;;;21.52;1.42;;;10.00;99.90;;;;;;5011438;28;20122;-76
2022/09/19 04:00:36;;;;;;;32.83;1.88;;;10.10;99.90;;;;;;5010702;28;20050;-74
2022/09/19 04:03:02;;;;;;;27.50;1.75;;;10.10;99.90;;;;;;5010203;28;20133;-74
2022/09/19 04:05:28;;;;;;;17.40;1.75;;;10.10;99.90;;;;;;5009668;28;20470;-77
2022/09/19 04:07:54;;;;;;;25.48;1.83;;;10.10;99.90;;;;;;5009506;28;20038;-74
2022/09/19 04:10:20;;;;;;;29.05;1.90;;;10.20;99.90;;;;;;5008489;28;20118;-75
2022/09/19 04:12:48;;;;;;;35.10;1.77;;;10.20;99.90;;;;;;5010300;28;20498;-75
2022/09/19 04:15:14;;;;;;;37.25;1.90;;;10.30;99.90;;;;;;5011229;28;20147;-75
2022/09/19 04:17:40;;;;;;;17.13;1.37;;;10.30;99.90;;;;;;5010766;28;20401;-76
2022/09/19 04:20:08;;;;;;;29.13;1.85;;;10.30;99.90;;;;;;5011848;28;20754;-76
2022/09/19 04:22:37;;;;;;;25.27;1.65;;;10.50;99.90;;;;;;5017407;28;20041;-79
2022/09/19 04:25:05;;;;;;;30.50;1.73;;;10.50;99.90;;;;;;5008024;28;20054;-72
2022/09/19 04:27:30;;;;;;;32.95;1.75;;;10.50;99.90;;;;;;5008034;28;20129;-78
2022/09/19 04:29:56;;;;;;;21.33;1.83;;;10.60;99.90;;;;;;5011805;28;20529;-76
2022/09/19 04:32:22;;;;;;;28.17;1.73;;;10.60;99.90;;;;;;5015446;28;20045;-82
2022/09/19 04:34:49;;;;;;;30.88;2.08;;;10.60;99.90;;;;;;5012654;28;20463;-79
2022/09/19 04:37:15;;;;;;;24.23;1.63;;;10.60;99.90;;;;;;5011386;28;20060;-76
2022/09/19 04:39:41;;;;;;;37.10;1.75;;;10.70;99.90;;;;;;4994424;28;20121;-79
2022/09/19 04:42:07;;;;;;;20.20;1.50;;;10.60;99.90;;;;;;5012326;28;20537;-75
2022/09/19 04:44:33;;;;;;;28.87;2.00;;;10.60;99.90;;;;;;5012672;28;20527;-75
2022/09/19 04:46:59;;;;;;;26.80;1.45;;;10.50;99.90;;;;;;5012601;28;20173;-75
2022/09/19 04:49:35;;;;;;;36.05;2.10;;;10.40;99.90;;;;;;5010789;28;20364;-75
2022/09/19 04:52:02;;;;;;;35.97;1.55;;;10.50;99.90;;;;;;5010829;28;20053;-73
2022/09/19 04:54:28;;;;;;;29.98;1.95;;;10.40;99.90;;;;;;4994440;28;20042;-78
2022/09/19 04:56:53;;;;;;;33.88;2.05;;;10.30;99.90;;;;;;4994293;28;20046;-76
2022/09/19 04:59:19;;;;;;;31.70;2.50;;;10.20;99.90;;;;;;4992719;28;20107;-77
2022/09/19 05:01:45;;;;;;;29.08;2.05;;;10.10;99.90;;;;;;5010967;28;20467;-75
2022/09/19 05:04:11;;;;;;;28.23;1.77;;;10.00;99.90;;;;;;5011468;28;20053;-74
2022/09/19 05:06:36;;;;;;;24.20;1.80;;;10.00;99.90;;;;;;5009795;28;20559;-80
2022/09/19 05:09:02;;;;;;;28.48;3.30;;;9.90;99.90;;;;;;4994615;28;20132;-75
2022/09/19 05:11:28;;;;;;;36.72;1.88;;;9.80;99.90;;;;;;5011922;28;20053;-75
2022/09/19 05:13:54;;;;;;;38.58;1.60;;;9.80;99.90;;;;;;5010029;28;20552;-77
2022/09/19 05:16:20;;;;;;;27.27;1.77;;;9.70;99.90;;;;;;5010204;28;20042;-76
2022/09/19 05:18:46;;;;;;;33.30;2.08;;;9.60;99.90;;;;;;5011944;28;20092;-75
2022/09/19 05:21:14;;;;;;;23.45;1.92;;;9.60;99.90;;;;;;5000748;28;20101;-75
2022/09/19 05:23:41;;;;;;;19.00;1.88;;;9.50;99.90;;;;;;5016971;28;20409;-77
2022/09/19 05:26:09;;;;;;;24.73;2.28;;;9.50;99.90;;;;;;5022823;28;20457;-75
2022/09/19 05:28:36;;;;;;;32.45;2.25;;;9.50;99.90;;;;;;5020429;28;20076;-75
2022/09/19 05:31:05;;;;;;;;;;;9.40;99.90;;;;;;5012495;28;20112;-76
2022/09/19 05:33:32;;;;;;;20.92;2.15;;;9.40;99.90;;;;;;5010991;28;19921;-75
2022/09/19 05:36:00;;;;;;;29.77;1.52;;;9.40;99.90;;;;;;4994274;28;20281;-74
2022/09/19 05:38:27;;;;;;;29.17;2.80;;;9.40;99.90;;;;;;5010340;28;20057;-74
2022/09/19 05:40:53;;;;;;;;;;;9.40;99.90;;;;;;5010967;28;20493;-75
2022/09/19 05:43:19;;;;;;;27.57;1.50;;;9.50;99.90;;;;;;5012716;28;19933;-75
2022/09/19 05:45:46;;;;;;;;;;;9.50;99.90;;;;;;5011312;28;20062;-75
2022/09/19 05:48:13;;;;;;;28.07;1.33;;;9.60;99.90;;;;;;5015867;28;20389;-75
2022/09/19 05:50:38;;;;;;;32.27;2.80;;;9.60;99.90;;;;;;5014184;28;21161;-80
2022/09/19 05:55:48;;;;;;;25.52;2.05;;;9.70;99.90;;;;;;5020084;28;20049;-77
2022/09/19 05:58:17;;;;;;;27.27;1.92;;;9.80;99.90;;;;;;5018695;28;20061;-74
2022/09/19 06:00:43;;;;;;;31.23;1.98;;;9.80;99.90;;;;;;5016446;28;20132;-75
2022/09/19 06:03:15;;;;;;;19.42;1.15;;;9.80;99.90;;;;;;4998254;28;20060;-75
2022/09/19 06:05:45;;;;;;;21.13;2.00;;;9.80;99.90;;;;;;5016139;28;20049;-76
2022/09/19 06:08:12;;;;;;;22.40;1.87;;;9.80;99.90;;;;;;5031017;28;20052;-77
2022/09/19 06:10:40;;;;;;;34.30;2.35;;;9.80;99.90;;;;;;4998862;28;20049;-75
2022/09/19 06:13:08;;;;;;;16.83;1.20;;;9.80;99.90;;;;;;5031928;28;20125;-75
2022/09/19 06:15:34;;;;;;;28.10;2.20;;;9.80;99.90;;;;;;5017474;28;20111;-76
2022/09/19 06:18:00;;;;;;;20.70;1.80;;;9.70;99.90;;;;;;5014335;28;20273;-75
2022/09/19 06:20:25;;;;;;;26.02;2.00;;;9.60;99.90;;;;;;5019494;28;20415;-80
2022/09/19 06:23:02;;;;;;;23.35;1.75;;;9.60;99.90;;;;;;5025549;28;20045;-76
2022/09/19 06:25:35;;;;;;;22.38;1.63;;;9.60;99.90;;;;;;5025541;28;20180;-75
2022/09/19 06:28:02;;;;;;;;;;;9.60;99.90;;;;;;5026975;28;20054;-76
2022/09/19 06:30:27;;;;;;;;;;;9.60;99.90;;;;;;5009533;28;19972;-80
2022/09/19 06:32:53;;;;;;;26.63;1.53;;;9.60;99.90;;;;;;5013720;28;19916;-76
2022/09/19 06:35:21;;;;;;;17.83;1.73;;;9.60;99.90;;;;;;5017449;28;20053;-77
2022/09/19 06:37:47;;;;;;;17.77;1.73;;;9.70;99.90;;;;;;5013498;28;20104;-77
2022/09/19 06:40:14;;;;;;;25.33;2.08;;;9.70;99.90;;;;;;5012980;28;20068;-75
2022/09/19 06:42:40;;;;;;;21.95;2.05;;;9.70;99.90;;;;;;5013548;28;20054;-74
2022/09/19 06:45:07;;;;;;;35.93;2.93;;;9.70;99.90;;;;;;5015007;28;20403;-77
2022/09/19 06:47:35;;;;;;;26.63;1.70;;;9.70;99.90;;;;;;5014388;28;20046;-79
2022/09/19 06:50:02;;;;;;;23.35;1.40;;;9.70;99.90;;;;;;5012846;28;20050;-78
2022/09/19 06:52:28;;;;;;;21.70;2.55;;;9.70;99.90;;;;;;5014540;28;20168;-75
2022/09/19 06:54:54;;;;;;;15.98;1.80;;;9.90;99.90;;;;;;5015350;28;20053;-78
2022/09/19 06:57:21;;;;;;;21.55;1.35;;;10.00;99.90;;;;;;5015851;28;20371;-76
2022/09/19 06:59:46;;;;;;;23.97;1.50;;;10.10;99.90;;;;;;5011845;28;20112;-75
2022/09/19 07:02:13;;;;;;;26.88;1.95;;;10.20;99.90;;;;;;5014438;28;20041;-73
2022/09/19 07:04:39;;;;;;;29.27;1.85;;;10.40;99.90;;;;;;5015181;28;20234;-77
2022/09/19 07:07:05;;;;;;;15.35;1.55;;;10.50;99.90;;;;;;5013431;28;20184;-80
2022/09/19 07:09:31;;;;;;;25.35;1.95;;;10.60;99.90;;;;;;5015421;28;20477;-78
2022/09/19 07:11:57;;;;;;;23.73;1.87;;;10.60;99.90;;;;;;5016608;28;20045;-76
2022/09/19 07:14:24;;;;;;;22.58;1.52;;;10.70;99.90;;;;;;5001581;28;20049;-75
2022/09/19 07:16:50;;;;;;;19.40;1.17;;;10.70;99.90;;;;;;5014350;28;20406;-77
2022/09/19 07:19:16;;;;;;;34.60;1.80;;;10.70;99.90;;;;;;5012830;28;20053;-81
2022/09/19 07:21:43;;;;;;;23.10;1.60;;;10.70;99.90;;;;;;4996690;28;20057;-75
2022/09/19 07:24:09;;;;;;;26.40;2.47;;;10.70;99.90;;;;;;5011545;28;20418;-76
2022/09/19 07:26:35;;;;;;;19.48;1.52;;;10.70;99.90;;;;;;5013172;28;20115;-79
2022/09/19 07:29:01;;;;;;;23.10;1.90;;;10.70;99.90;;;;;;5011924;28;20494;-76
2022/09/19 07:31:27;;;;;;;28.27;2.08;;;10.80;99.90;;;;;;5012010;28;20069;-76
2022/09/19 07:33:53;;;;;;;20.63;1.52;;;10.80;99.90;;;;;;5012306;28;20053;-76
2022/09/19 07:36:21;;;;;;;13.02;0.93;;;10.90;99.90;;;;;;5013082;28;20075;-81
2022/09/19 07:38:50;;;;;;;15.85;1.13;;;11.00;99.90;;;;;;5014314;28;20124;-82
2022/09/19 07:41:17;;;;;;;21.80;1.38;;;11.00;99.90;;;;;;5011702;28;20135;-79
2022/09/19 07:43:44;;;;;;;19.63;1.20;;;11.10;99.90;;;;;;5009498;28;20049;-78
2022/09/19 07:46:14;;;;;;;17.45;1.90;;;11.10;99.90;;;;;;5011633;28;20050;-77
2022/09/19 07:48:46;;;;;;;20.00;1.95;;;11.20;99.90;;;;;;5001328;28;20571;-77
2022/09/19 07:51:12;;;;;;;18.88;1.60;;;11.30;99.90;;;;;;5010674;28;20060;-75
2022/09/19 07:53:37;;;;;;;21.38;1.95;;;11.40;99.90;;;;;;5012569;28;20041;-76
2022/09/19 07:56:05;;;;;;;25.33;1.75;;;11.50;99.90;;;;;;4992631;28;20447;-76
2022/09/19 07:58:31;;;;;;;17.98;1.95;;;11.50;99.90;;;;;;4993724;28;20046;-78
2022/09/19 08:01:01;;;;;;;20.35;1.92;;;11.60;99.90;;;;;;4995527;28;20167;-77
2022/09/19 08:03:27;;;;;;;21.17;2.35;;;11.70;99.90;;;;;;5013675;28;20053;-81
2022/09/19 08:05:53;;;;;;;22.73;1.42;;;11.80;99.90;;;;;;5011753;28;20053;-80
2022/09/19 08:08:22;;;;;;;21.52;1.67;;;11.90;99.90;;;;;;5013284;28;20092;-77
2022/09/19 08:10:47;;;;;;;18.83;1.40;;;11.80;99.90;;;;;;5011453;28;20450;-78
2022/09/19 08:13:15;;;;;;;16.55;1.27;;;11.90;99.90;;;;;;5010757;28;20092;-81
2022/09/19 08:15:43;;;;;;;17.88;1.55;;;12.00;99.90;;;;;;5011071;28;20050;-77
2022/09/19 08:18:20;;;;;;;23.92;1.55;;;12.10;99.90;;;;;;5010403;28;20046;-75
2022/09/19 08:20:46;;;;;;;16.90;1.27;;;12.40;99.90;;;;;;5007313;28;20129;-74
2022/09/19 08:23:14;;;;;;;25.13;1.30;;;12.40;99.90;;;;;;4994681;28;20056;-78
2022/09/19 08:25:46;;;;;;;18.60;1.30;;;12.60;99.90;;;;;;5002954;28;20434;-79
2022/09/19 08:28:12;;;;;;;15.55;1.33;;;12.60;99.90;;;;;;5002206;28;20046;-75
2022/09/19 08:30:38;;;;;;;18.15;1.08;;;12.60;99.90;;;;;;5004612;28;20042;-81
2022/09/19 08:33:06;;;;;;;29.33;2.25;;;12.50;99.90;;;;;;5008671;28;20498;-77
2022/09/19 08:35:37;;;;;;;21.08;0.90;;;12.50;99.90;;;;;;5013846;28;20046;-79
2022/09/19 08:38:06;;;;;;;19.80;1.48;;;12.50;99.90;;;;;;5012825;28;20042;-76
2022/09/19 08:40:35;;;;;;;23.73;1.65;;;12.60;99.90;;;;;;5012964;28;20061;-77
2022/09/19 08:43:20;;;;;;;23.33;1.20;;;12.60;99.90;;;;;;5012957;28;20046;-77
2022/09/19 08:46:10;;;;;;;19.45;0.88;;;12.60;99.90;;;;;;5014072;28;20049;-81
2022/09/19 08:49:00;;;;;;;18.00;1.35;;;12.60;99.90;;;;;;5012871;28;20068;-78
2022/09/19 08:51:52;;;;;;;20.80;1.83;;;12.70;99.90;;;;;;5010565;28;20050;-77
2022/09/19 08:54:22;;;;;;;22.33;1.40;;;12.90;99.90;;;;;;5010966;28;20416;-76
2022/09/19 08:56:47;;;;;;;24.38;1.60;;;13.20;99.90;;;;;;5010782;28;20084;-79
2022/09/19 08:59:20;;;;;;;22.77;1.20;;;13.30;99.90;;;;;;5010501;28;20491;-81
2022/09/19 09:01:46;;;;;;;11.50;1.05;;;13.40;99.90;;;;;;5013836;28;20042;-83
2022/09/19 09:04:30;;;;;;;19.75;0.93;;;13.40;99.90;;;;;;5009321;28;20050;-78
2022/09/19 09:07:08;;;;;;;18.25;1.13;;;13.60;99.90;;;;;;5013126;28;20054;-84
2022/09/19 09:10:00;;;;;;;15.88;1.08;;;13.80;99.90;;;;;;5011024;28;20509;-78
2022/09/19 09:12:32;;;;;;;19.30;1.23;;;13.90;99.90;;;;;;5012647;28;20104;-82
2022/09/19 09:15:25;;;;;;;19.63;1.65;;;14.30;99.90;;;;;;4995222;28;20065;-84
2022/09/19 09:18:32;;;;;;;21.98;1.70;;;14.30;99.90;;;;;;4996153;28;20046;-82
2022/09/19 09:21:08;;;;;;;17.00;1.02;;;14.30;99.90;;;;;;4966625;28;20106;-84
2022/09/19 09:23:38;;;;;;;18.63;1.23;;;14.50;99.90;;;;;;5013027;28;20056;-80
2022/09/19 09:26:10;;;;;;;13.10;0.80;;;14.50;99.90;;;;;;5016473;28;20419;-79
2022/09/19 09:28:49;;;;;;;16.40;1.77;;;14.70;99.90;;;;;;5020109;28;20490;-83
2022/09/19 09:31:36;;;;;;;21.95;1.08;;;14.70;99.90;;;;;;5020051;28;20042;-82
2022/09/19 09:34:14;;;;;;;22.08;1.00;;;14.80;99.90;;;;;;4999404;28;20062;-78
2022/09/19 09:36:50;;;;;;;17.23;1.92;;;14.70;99.90;;;;;;5000168;28;20085;-76
2022/09/19 09:39:30;;;;;;;12.23;0.93;;;14.70;99.90;;;;;;5016751;28;20076;-80
2022/09/19 09:42:00;;;;;;;9.88;0.50;;;14.80;99.90;;;;;;5020249;28;20284;-73
2022/09/19 09:44:59;;;;;;;7.85;0.60;;;14.60;99.90;;;;;;5020071;28;20050;-76
2022/09/19 09:47:55;;;;;;;15.68;0.68;;;14.30;99.90;;;;;;4996775;28;20150;-80
2022/09/19 09:50:31;;;;;;;9.73;0.90;;;14.00;99.90;;;;;;5000746;28;20096;-79
2022/09/19 09:53:03;;;;;;;10.02;0.63;;;13.70;99.90;;;;;;5031386;28;20301;-76
2022/09/19 09:58:53;;;;;;;16.42;0.80;;;13.60;99.90;;;;;;5012024;28;20050;-74
2022/09/19 10:04:33;;;;;;;20.38;1.00;;;13.60;99.90;;;;;;5014962;28;20065;-76
2022/09/19 10:07:12;;;;;;;15.50;1.13;;;13.50;99.90;;;;;;5014682;28;20506;-76
2022/09/19 10:09:48;;;;;;;25.10;1.23;;;13.40;99.90;;;;;;5014183;28;20068;-76
2022/09/19 10:12:25;;;;;;;11.43;0.77;;;13.20;99.90;;;;;;5012806;28;20049;-78
2022/09/19 10:15:00;;;;;;;15.90;0.93;;;13.20;99.90;;;;;;5014050;28;20057;-80
2022/09/19 10:17:29;;;;;;;17.40;1.20;;;13.40;99.90;;;;;;5014773;28;20042;-79
2022/09/19 10:20:03;;;;;;;14.27;1.88;;;13.60;99.90;;;;;;5014475;28;20041;-81
2022/09/19 10:22:29;;;;;;;19.38;1.00;;;13.70;99.90;;;;;;5009701;28;20058;-81
2022/09/19 10:25:06;;;;;;;13.68;0.60;;;13.90;99.90;;;;;;5014658;28;20069;-79
2022/09/19 10:27:33;;;;;;;24.58;2.05;;;14.20;99.90;;;;;;5022495;28;20042;-80
2022/09/19 10:30:25;;;;;;;16.20;1.40;;;14.40;99.90;;;;;;5032087;28;20097;-81
2022/09/19 10:32:52;;;;;;;20.65;1.13;;;14.60;99.90;;;;;;5005837;28;20034;-77
2022/09/19 10:35:36;;;;;;;25.90;1.38;;;14.70;99.90;;;;;;5003836;28;20050;-78
2022/09/19 10:38:13;;;;;;;19.02;1.67;;;14.80;99.90;;;;;;5003416;28;20107;-80
2022/09/19 10:40:56;;;;;;;20.05;1.67;;;14.90;99.90;;;;;;5001626;28;20059;-76
2022/09/19 10:43:50;;;;;;;15.30;1.27;;;14.90;99.90;;;;;;4997973;28;20065;-77
2022/09/19 10:46:36;;;;;;;16.50;1.55;;;14.80;99.90;;;;;;4994737;28;20058;-81
2022/09/19 10:49:13;;;;;;;14.55;0.95;;;14.70;99.90;;;;;;5000581;28;20054;-79
2022/09/19 10:51:44;;;;;;;9.15;0.90;;;14.40;99.90;;;;;;5012682;28;20050;-78
2022/09/19 10:54:36;;;;;;;6.93;0.47;;;14.10;99.90;;;;;;5017560;28;20046;-82
2022/09/19 10:57:04;;;;;;;8.60;0.52;;;14.00;99.90;;;;;;5015395;28;20125;-77
2022/09/19 10:59:37;;;;;;;7.97;0.32;;;13.80;99.90;;;;;;5012695;28;20052;-79
2022/09/19 11:02:16;;;;;;;9.02;0.60;;;13.90;99.90;;;;;;5014414;28;20054;-80
2022/09/19 11:04:59;;;;;;;12.35;0.80;;;14.10;99.90;;;;;;5013746;28;20054;-78
2022/09/19 11:07:29;;;;;;;10.15;0.85;;;14.20;99.90;;;;;;5013123;28;20482;-77
2022/09/19 11:09:59;;;;;;;8.98;0.73;;;14.30;99.90;;;;;;5014799;28;20490;-82
2022/09/19 11:12:30;;;;;;;13.05;0.98;;;14.50;99.90;;;;;;5012855;28;20077;-78
2022/09/19 11:14:57;;;;;;;14.80;1.13;;;14.60;99.90;;;;;;5012813;28;20108;-77
2022/09/19 11:17:37;;;;;;;;;;;14.90;99.90;;;;;;5013871;28;20053;-83
2022/09/19 11:20:38;;;;;;;15.50;1.00;;;15.10;99.90;;;;;;5015420;28;20338;-81
2022/09/19 11:23:18;;;;;;;11.50;1.13;;;15.10;99.90;;;;;;5007957;28;20414;-80
2022/09/19 11:26:13;;;;;;;16.73;1.35;;;15.30;99.90;;;;;;5014400;28;20058;-79
2022/09/19 11:28:51;;;;;;;13.30;1.02;;;15.50;99.90;;;;;;5014107;28;20116;-80
2022/09/19 11:31:38;;;;;;;17.30;0.80;;;15.60;99.90;;;;;;5012660;28;20422;-79
2022/09/19 11:34:22;;;;;;;13.60;1.05;;;15.90;99.90;;;;;;5014250;28;20046;-76
2022/09/19 11:36:59;;;;;;;10.77;0.90;;;16.00;99.90;;;;;;5019731;28;20088;-80
2022/09/19 11:39:37;;;;;;;12.07;0.70;;;16.20;99.90;;;;;;5018996;28;20053;-79
2022/09/19 11:42:37;;;;;;;14.73;1.00;;;16.40;99.90;;;;;;5019170;28;20050;-78
2022/09/19 11:45:17;;;;;;;13.43;0.73;;;16.40;99.90;;;;;;5000356;28;20046;-75
2022/09/19 11:47:59;;;;;;;24.83;1.50;;;16.30;99.90;;;;;;5019961;28;20054;-76
2022/09/19 11:50:47;;;;;;;25.55;2.00;;;15.70;99.90;;;;;;5021994;28;20077;-79
2022/09/19 11:53:31;;;;;;;44.65;2.75;;;14.70;99.90;;;;;;5020673;28;20049;-79
2022/09/19 11:56:17;;;;;;;43.15;2.47;;;13.40;99.90;;;;;;5017508;28;20046;-76
2022/09/19 11:59:08;;;;;;;35.17;2.10;;;12.70;99.90;;;;;;5012934;28;20046;-77
2022/09/19 12:01:59;;;;;;;32.30;2.08;;;12.10;99.90;;;;;;5011618;28;20053;-71
2022/09/19 12:04:42;;;;;;;23.23;1.40;;;12.30;99.90;;;;;;5011051;28;20049;-84
2022/09/19 12:07:27;;;;;;;15.43;1.02;;;12.50;99.90;;;;;;5015168;28;20112;-81
2022/09/19 12:10:18;;;;;;;21.00;1.13;;;12.90;99.90;;;;;;5012007;28;20057;-83
2022/09/19 12:12:55;;;;;;;18.88;1.17;;;12.70;99.90;;;;;;5009586;28;20069;-80
2022/09/19 12:15:25;;;;;;;10.07;0.77;;;12.80;99.90;;;;;;5009945;28;20466;-81
2022/09/19 12:18:13;;;;;;;20.65;2.33;;;12.60;99.90;;;;;;5001688;28;20041;-81
2022/09/19 12:20:43;;;;;;;14.70;0.90;;;13.00;99.90;;;;;;5011826;28;20050;-80
2022/09/19 12:26:00;;;;;;;11.23;0.80;;;12.90;99.90;;;;;;5009987;28;20049;-76
2022/09/19 12:28:29;;;;;;;;;;;13.10;99.90;;;;;;5010884;28;20517;-80
2022/09/19 12:30:58;;;;;;;18.63;1.17;;;13.80;99.90;;;;;;5011416;28;19921;-77
2022/09/19 12:33:34;;;;;;;14.38;1.65;;;13.60;99.90;;;;;;4993892;28;20054;-77
2022/09/19 12:36:05;;;;;;;14.73;1.20;;;13.90;99.90;;;;;;4994440;28;20050;-77
2022/09/19 12:38:48;;;;;;;16.35;1.55;;;13.50;99.90;;;;;;5010527;28;20054;-77
2022/09/19 12:41:40;;;;;;;19.02;1.52;;;13.60;99.90;;;;;;5010426;28;20048;-76
2022/09/19 12:44:09;;;;;;;19.42;1.52;;;13.80;99.90;;;;;;4981579;28;20058;-75
2022/09/19 12:47:04;;;;;;;17.77;1.73;;;14.10;99.90;;;;;;5010478;28;20111;-78
2022/09/19 12:49:37;;;;;;;20.73;1.30;;;13.40;99.90;;;;;;4991856;28;20050;-77
2022/09/19 12:52:12;;;;;;;17.52;1.80;;;14.10;99.90;;;;;;5011213;28;20060;-77
2022/09/19 12:54:46;;;;;;;27.52;2.92;;;14.20;99.90;;;;;;5011190;28;20081;-73
2022/09/19 12:57:36;;;;;;;23.45;1.50;;;14.30;99.90;;;;;;5010699;28;20089;-76
2022/09/19 13:00:03;;;;;;;25.20;2.88;;;14.10;99.90;;;;;;5010694;28;20089;-76
2022/09/19 13:02:43;;;;;;;19.45;1.10;;;13.60;99.90;;;;;;4993177;28;20053;-77
2022/09/19 13:05:21;;;;;;;30.25;1.42;;;14.20;99.90;;;;;;5010384;28;20449;-79
2022/09/19 13:08:02;;;;;;;16.70;1.60;;;13.60;99.90;;;;;;5010135;28;20125;-75
2022/09/19 13:10:48;;;;;;;22.35;1.67;;;14.40;99.90;;;;;;5000682;28;20057;-76
2022/09/19 13:13:32;;;;;;;18.98;1.23;;;14.10;99.90;;;;;;5011595;28;20073;-78
2022/09/19 13:16:00;;;;;;;15.43;1.23;;;14.50;99.90;;;;;;5010381;28;20049;-76
2022/09/19 13:24:04;;;;;;;20.58;1.10;;;14.20;99.90;;;;;;5010876;28;20141;-79
2022/09/19 13:26:36;;;;;;;24.58;1.30;;;14.40;99.90;;;;;;5010546;28;20045;-77